Tiempo atmosférico en la estación meteorológica de Huercal Overa, Almería (295 m.)



Fecha
DESCASC
Temp. máxima en grados centígrados (hora)
DESCASC
Temp. mínima en grados centígrados (hora)
DESCASC
Temp. media en grados centígrados
DESCASC
Racha de viento máxima en m/sg (hora)
DESCASC
Velocidad máxima media en intervalos de 10 minutos(hora)
DESCASC
Precipitaciones diarias en mm
DESCASC
Precipitaciones de 00:00 a 06:00 en mm
DESCASC
Precipitaciones de 06:00 a 12:00 en mm
DESCASC
Precipitaciones de 12:00 a 18:00 en mm
DESCASC
Precipitaciones de 18:00 a 24:00 en mm
DESCASC

Gráficas

Temp. máximas Temp. mínimas Temp. medias Precipitaciones Rachas de viento máximas Velocidades máximas media en intervalos de 10 minutos

Datos horarios

Fecha y hora oficial Temperatura (ºC) Velocidad del viento (km/h) Dirección del viento Racha (km/h) Dirección de racha Precipitación (mm) Presión (hPa) Tendencia (hPa) Humedad (%)
2021-03-01 23:00:00 11.3 4 Este 22 Sudeste 0 986.9 1.2 75
2021-03-01 22:00:00 11.7 9 Este 27 Sudeste 0 986.7 1.1 72
2021-03-01 21:00:00 11.8 8 Este 31 Este 0 986.3 1 72
2021-03-01 20:00:00 12.1 10 Este 31 Este 0 985.7 1 69
2021-03-01 19:00:00 12.7 9 Este 26 Nordeste 0 985.6 1 66
2021-03-01 18:00:00 13.5 9 Este 27 Nordeste 0 985.3 0.7 60
2021-03-01 17:00:00 14 11 Este 33 Nordeste 0 984.7 -0.4 56
2021-03-01 16:00:00 14.4 9 Este 33 Nordeste 0 984.6 -- 55
2021-03-01 15:00:00 14.2 11 Este 34 Nordeste 0 984.6 -- 60
2021-03-01 14:00:00 14.2 12 Este 37 Nordeste 0 985.1 -- 62
2021-03-01 13:00:00 12.8 14 Este 39 Nordeste 0 985.7 -- 66
2021-03-01 12:00:00 12.5 15 Este 35 Nordeste 0 986.4 -- 66
2021-03-01 11:00:00 12.9 9 Este 33 Nordeste 0 986.1 -- 66
2021-03-01 10:00:00 11.3 10 Este 38 Nordeste 0 986 -- 73
2021-03-01 09:00:00 10.8 6 Este 31 Nordeste 0 985.9 -- 76
2021-03-01 08:00:00 10.6 10 Este 29 Nordeste 0 985.5 -- 75
2021-03-01 07:00:00 10.5 9 Este 34 Este 0 985 -- 75
2021-03-01 06:00:00 10.5 11 Este 42 Sudeste 0 984.8 -- 74
2021-03-01 05:00:00 10.3 10 Este 35 Nordeste 0 984.3 -- 76
2021-03-01 04:00:00 10.1 8 Este 28 Este 0 985.1 -- 77
2021-03-01 03:00:00 10.2 10 Este 37 Este 0.1 985.1 -- 77
2021-03-01 02:00:00 10.1 13 Este 34 Este 0 985.3 -- 78
2021-03-01 01:00:00 10.2 10 Este 27 Nordeste 0.2 985.5 -- 75
2021-03-01 00:00:00 10.7 8 Sudeste 31 Nordeste 0 987.2 -- 69
2021-02-28 23:00:00 10.8 15 Este 35 Este 0 985.8 -- 72
2021-02-28 22:00:00 10.9 3 Sudeste 26 Este 0 987.7 -- 68
2021-02-28 21:00:00 11.5 9 Este 26 Este 0 985.9 -- 62
2021-02-28 20:00:00 11.4 8 Nordeste 22 Nordeste 0 985.7 -- 70
2021-02-28 19:00:00 11.7 8 Este 31 Nordeste 0 985.4 -- 62
2021-02-28 18:00:00 12.5 11 Nordeste 32 Nordeste 0 985.2 -- 56
2021-02-28 17:00:00 12.9 8 Este 23 Este 0 985.4 -- 53
2021-02-28 16:00:00 13.1 6 Este 30 Nordeste 0 985.4 -- 50
2021-02-28 15:00:00 12.8 10 Este 28 Nordeste 0 985.9 -- 53
2021-02-28 14:00:00 12.3 6 Este 21 Nordeste 0 986.5 -- 59
2021-02-28 13:00:00 11.8 9 Este 24 Este 0 987.6 -- 63
2021-02-28 12:00:00 12.1 8 Este 21 Nordeste 0 987.8 -- 64
2021-02-28 11:00:00 11.6 6 Este 21 Nordeste 0 987.8 -- 68
2021-02-28 10:00:00 10.7 6 Este 19 Nordeste 0 987.8 -- 69
2021-02-28 09:00:00 10.5 0 Calma 5 Este 0 987.6 -- 64
2021-02-28 08:00:00 10.1 0 Calma 14 Este 0 987.2 -- 65
2021-02-28 07:00:00 10 8 Nordeste 18 Nordeste 0 986.9 -- 65
2021-02-28 06:00:00 9.9 3 Nordeste 15 Nordeste 0 987 -- 66
2021-02-28 05:00:00 10.1 5 Este 14 Nordeste 0 986.7 -- 65
2021-02-28 04:00:00 10.1 6 Nordeste 14 Nordeste 0 987 -- 65
2021-02-28 03:00:00 9.9 4 Nordeste 15 Nordeste 0 987.5 -- 69
2021-02-28 02:00:00 9.6 3 Este 15 Este 0 987.6 -- 73
2021-02-28 01:00:00 8 0 Calma 3 Noroeste 0 987.6 -- 81
2021-02-28 00:00:00 7.5 0 Calma 4 Sudoeste 0 987.6 -- 81
2021-02-27 23:00:00 8.7 0 Calma 3 Este 0 987.5 -- 78
2021-02-27 22:00:00 9.5 0 Calma 4 Noroeste 0 987.5 -- 75
2021-02-27 21:00:00 10.4 2 Sudeste 9 Este 0 987.4 -- 70
2021-02-27 20:00:00 10.8 5 Este 12 Sudeste 0 987.4 -- 69
2021-02-27 19:00:00 11.7 2 Sudeste 13 Sudeste 0 987.2 -- 62
2021-02-27 18:00:00 12.9 5 Sudeste 18 Sudeste 0 987.2 -- 53
2021-02-27 17:00:00 13.8 6 Este 17 Sudeste 0 987.4 -- 47
2021-02-27 16:00:00 13.2 9 Sudeste 21 Este 0 987.8 -- 48
2021-02-27 15:00:00 13.2 8 Sudeste 20 Este 0 988.6 -- 49
2021-02-27 14:00:00 13 5 Este 22 Nordeste 0 989.5 -- 49
2021-02-27 13:00:00 11.8 6 Este 18 Este 0 990.5 -- 52
2021-02-27 12:00:00 11.3 6 Este 24 Nordeste 0 991 -- 54
2021-02-27 11:00:00 11 7 Este 23 Nordeste 0 991 -- 55
2021-02-27 10:00:00 10.5 5 Este 19 Nordeste 0 991.2 -- 60
2021-02-27 09:00:00 9.9 3 Este 12 Este 0 990.8 -- 74
2021-02-27 08:00:00 8.4 2 Este 7 Nordeste 0 990.4 -- 81
2021-02-27 07:00:00 8.1 0 Calma 9 Este 0 990.3 -- 82
2021-02-27 06:00:00 8.9 2 Este 15 Este 0 990.1 -- 79
2021-02-27 05:00:00 9.7 5 Este 17 Este 0 990.4 -- 75
2021-02-27 04:00:00 10 5 Este 16 Este 0 990.7 -- 72
2021-02-27 03:00:00 10.3 5 Este 19 Nordeste 0 991.1 -- 72
2021-02-27 02:00:00 10.6 6 Este 17 Nordeste 0 991.7 -- 71
2021-02-27 01:00:00 10.6 5 Este 19 Nordeste 0 991.9 -- 70
2021-02-27 00:00:00 10.7 4 Este 17 Nordeste 0 992.3 -- 72
2021-02-26 23:00:00 10.7 7 Este 16 Nordeste 0 992.6 -- 71
2021-02-26 22:00:00 10.4 5 Este 17 Sudeste 0 992.2 -- 71
2021-02-26 21:00:00 10.8 3 Este 22 Este 0 991.9 -- 67
2021-02-26 20:00:00 11.7 6 Este 21 Nordeste 0 991.5 -- 64
2021-02-26 19:00:00 13 7 Este 26 Sudeste 0 991.3 -- 54
2021-02-26 18:00:00 14.5 9 Este 24 Nordeste 0 991.3 -- 45
2021-02-26 17:00:00 15.1 8 Este 22 Nordeste 0 991.6 -- 44
2021-02-26 16:00:00 15 8 Este 22 Nordeste 0 991.7 -- 43
2021-02-26 15:00:00 14.4 9 Este 26 Nordeste 0 992.3 -- 47
2021-02-26 14:00:00 14.2 7 Este 28 Nordeste 0 992.9 -- 49
2021-02-26 13:00:00 13.8 9 Este 28 Nordeste 0 994 -- 53
2021-02-26 12:00:00 12.7 10 Este 30 Nordeste 0 994.4 -- 56
2021-02-26 11:00:00 12.9 8 Este 28 Nordeste 0 994.3 -- 59
2021-02-26 10:00:00 11.8 7 Este 20 Este 0 994.4 -- 65
2021-02-26 09:00:00 10.9 6 Este 23 Nordeste 0 993.8 -- 71
2021-02-26 08:00:00 10.2 6 Este 18 Este 0 993 -- 73
2021-02-26 07:00:00 10.1 4 Este 18 Este 0 992.6 -- 71
2021-02-26 06:00:00 8.9 0 Calma 4 Este 0 992 -- 79
2021-02-26 05:00:00 8.9 2 Noroeste 7 Este 0 992.2 -- 78
2021-02-26 04:00:00 9.3 0 Calma 6 Noroeste 0 992.3 -- 78
2021-02-26 03:00:00 9.6 0 Calma 10 Nordeste 0 992.9 -- 76
2021-02-26 02:00:00 11.1 3 Este 16 Este 0 993.7 -- 72
2021-02-26 01:00:00 11.4 6 Este 19 Nordeste 0 993.9 -- 74
2021-02-26 00:00:00 11.1 4 Este 20 Este 0 994 -- 75
2021-02-25 23:00:00 11.3 6 Este 19 Este 0 993.8 -- 75
2021-02-25 22:00:00 11.2 7 Este 29 Este 0 993.3 -- 75
2021-02-25 21:00:00 11.7 9 Este 26 Nordeste 0 993 -- 72
2021-02-25 20:00:00 12.6 0 Calma 8 Sudeste 0 992.9 -- 75
2021-02-25 19:00:00 12.5 4 Sudoeste 11 Sur 0 992.4 -- 76
2021-02-25 18:00:00 13.9 6 Sudoeste 14 Sudeste 0 992 -- 69
2021-02-25 17:00:00 15 6 Sudeste 19 Sur 0 991.9 -- 61
2021-02-25 16:00:00 16 6 Sudeste 24 Este 0 991.9 -- 57
2021-02-25 15:00:00 16.5 8 Este 24 Este 0 992.2 -- 46
2021-02-25 14:00:00 16.5 6 Sudeste 20 Este 0 992.8 -- 44
2021-02-25 13:00:00 14.7 7 Sudeste 22 Este 0 994.4 -- 52
2021-02-25 12:00:00 13.6 6 Este 19 Este 0 994.7 -- 57
2021-02-25 11:00:00 14.5 5 Este 15 Este 0 995.3 -- 55
2021-02-25 10:00:00 12.7 2 Este 9 Este 0 995 -- 62
2021-02-25 09:00:00 10 0 Calma 4 Oeste 0 994.9 -- 71
2021-02-25 08:00:00 9 0 Calma 4 Noroeste 0 994.1 -- 75
2021-02-25 07:00:00 9 3 Noroeste 6 Noroeste 0 994.1 -- 76
2021-02-25 06:00:00 9.3 0 Calma 5 Nordeste 0 994.1 -- 75
2021-02-25 05:00:00 10 0 Calma 9 Este 0 994.2 -- 76
2021-02-25 04:00:00 10.3 2 Nordeste 9 Nordeste 0 994.5 -- 75
2021-02-25 03:00:00 10.5 0 Calma 6 Nordeste 0 995.1 -- 75
2021-02-25 02:00:00 9.6 0 Calma 5 Noroeste 0 995.7 -- 74
2021-02-25 01:00:00 9.4 0 Calma 8 Norte 0 996.2 -- 78
2021-02-25 00:00:00 10.1 2 Este 6 Sudeste 0 996.3 -- 78
2021-02-24 23:00:00 10 0 Calma 10 Este 0 996.4 -- 77
2021-02-24 22:00:00 10.4 3 Sudeste 10 Nordeste 0 996.2 -- 77
2021-02-24 21:00:00 11.5 0 Calma 5 Nordeste 0 995.9 -- 78
2021-02-24 20:00:00 11.7 0 Calma 10 Sudeste 0 995.4 -- 75
2021-02-24 19:00:00 12.4 6 Sudeste 13 Este 0 995.4 -- 68
2021-02-24 18:00:00 13.2 8 Sudeste 15 Sudeste 0 995.2 -- 62
2021-02-24 17:00:00 14.4 7 Sudeste 20 Este 0 995.1 -- 58
2021-02-24 16:00:00 15.3 8 Sudeste 22 Sudeste 0 995.2 -- 55
2021-02-24 15:00:00 15.7 9 Sudeste 23 Sudeste 0 995.7 -- 49
2021-02-24 14:00:00 16.4 8 Sudeste 22 Este 0 996.2 -- 41
2021-02-24 13:00:00 16 8 Sudeste 23 Este 0 997.3 -- 48
2021-02-24 12:00:00 14.1 6 Este 19 Este 0 998.7 -- 56
2021-02-24 11:00:00 13.7 9 Este 22 Este 0 998.7 -- 61
2021-02-24 10:00:00 12.8 4 Sudeste 13 Sudeste 0 998.6 -- 62
2021-02-24 09:00:00 11.2 3 Sudeste 8 Nordeste 0 998.7 -- 64
2021-02-24 08:00:00 10.4 0 Calma 4 Noroeste 0 998.2 -- 66
2021-02-24 07:00:00 9.8 0 Calma -- -- 0 998 0 67
2021-02-24 06:00:00 9.4 0 Calma 5 Noroeste 0 997.8 -0.8 67
2021-02-24 05:00:00 8.2 0 Calma 6 Norte 0 997.8 -- 71
2021-02-24 04:00:00 8.3 4 Noroeste 6 Noroeste 0 998 -- 77
2021-02-24 03:00:00 9.2 0 Calma 0 Calma 0 998.6 -- 76
2021-02-24 02:00:00 9.3 0 Calma 8 Noroeste 0 998.8 -0.8 72
2021-02-24 01:00:00 9.6 2 Noroeste 6 Norte 0 999.3 -- 75
2021-02-24 00:00:00 10.8 0 Calma 9 Sudeste 0 999.5 -- 72
2021-02-23 23:00:00 11.8 3 Norte 10 Sudeste 0 999.6 -- 61
2021-02-23 22:00:00 12.1 2 Este 12 Sudeste 0 999.3 -- 59
2021-02-23 21:00:00 12 3 Este 13 Sur 0 998.6 2.1 67
2021-02-23 20:00:00 12.4 4 Sudeste 9 Sur 0 997.9 -- 56
2021-02-23 19:00:00 13.2 4 Sudeste 13 Este 0 996.9 -- 51
2021-02-23 18:00:00 13.9 6 Sur 15 Sudoeste 0 996.5 -- 47
2021-02-23 17:00:00 15.2 4 Sudeste 16 Sur 0 996.4 -- 39
2021-02-23 16:00:00 16.3 4 Este 23 Sudeste 0 996.3 -- 38
2021-02-23 15:00:00 17 4 Sudeste 25 Sudeste 0 996 -- 36
2021-02-23 14:00:00 15 11 Este 30 Sudeste 0 996.6 -- 35
2021-02-23 13:00:00 15.1 9 Este 32 Sudeste 0 996.8 -- 36
2021-02-23 12:00:00 16.6 8 Este 26 Este 0 996.5 -- 34
2021-02-23 11:00:00 14.9 7 Este 21 Nordeste 0 996.4 -- 39
2021-02-23 10:00:00 13.2 3 Sur 7 Sur 0 996.1 -- 41
2021-02-23 09:00:00 10.1 3 Noroeste 6 Noroeste 0 995.3 -- 45
2021-02-23 08:00:00 6.5 0 Calma 9 Nordeste 0 993.8 -- 53
2021-02-23 07:00:00 7.1 3 Nordeste 8 Nordeste 0 992.9 -- 50
2021-02-23 06:00:00 8.5 2 Este 7 Norte 0 992.6 -- 45
2021-02-23 05:00:00 10.1 0 Calma 6 Noroeste 0 992.3 -- 40
2021-02-23 04:00:00 10.8 0 Calma 8 Oeste 0 991.8 -- 37
2021-02-23 03:00:00 11.1 4 Oeste 12 Oeste 0 991.4 -- 37
2021-02-23 02:00:00 11 4 Sudoeste 12 Noroeste 0 991.1 -- 36
2021-02-23 01:00:00 11.1 0 Calma 5 Noroeste 0 990.8 -- 35
2021-02-23 00:00:00 11.1 3 Sur 15 Oeste 0 990.4 -- 34
2021-02-22 23:00:00 11.1 8 Oeste 14 Oeste 0 990.1 -- 34
2021-02-22 22:00:00 10.5 8 Oeste 17 Oeste 0 989.3 -- 33
2021-02-22 21:00:00 11.1 7 Oeste 9 Oeste 0 988.6 -- 28
2021-02-22 20:00:00 11.9 5 Oeste 34 Noroeste 0 987.5 -- 24
2021-02-22 19:00:00 13.2 16 Noroeste 38 Noroeste 0 986.2 -- 18
2021-02-22 18:00:00 14.9 20 Oeste 50 Noroeste 0 984.8 -- 14
2021-02-22 17:00:00 15.6 22 Noroeste 40 Noroeste 0 983.9 -- --
2021-02-22 16:00:00 16.4 18 Noroeste 45 Oeste 0 983.4 -- 14
2021-02-22 15:00:00 16 22 Noroeste 44 Noroeste 0 982.8 -- 17
2021-02-22 14:00:00 15.5 24 Oeste 49 Noroeste 0 982.9 -- 19
2021-02-22 13:00:00 14 27 Oeste 48 Oeste 0 983.5 -- 24
2021-02-22 12:00:00 13.3 18 Noroeste 40 Noroeste 0 983.4 -- 26
2021-02-22 11:00:00 12.2 19 Oeste 44 Noroeste 0 983.3 -- 31
2021-02-22 10:00:00 11.2 17 Noroeste 48 Noroeste 0 983.1 -- 36
2021-02-22 09:00:00 10.2 27 Noroeste 49 Noroeste 0 982.5 -- 38
2021-02-22 08:00:00 9.6 22 Oeste 43 Oeste 0 981.2 -- 41
2021-02-22 07:00:00 9.7 21 Noroeste 41 Noroeste 0 980.2 2.4 43
2021-02-22 06:00:00 10.1 23 Oeste 48 Oeste 0 979.1 -- 44
2021-02-22 05:00:00 10.2 30 Oeste 47 Noroeste 0 978 -- 45
2021-02-22 04:00:00 10.4 24 Noroeste 39 Oeste 0 977.8 -- 43
2021-02-22 03:00:00 10.5 16 Noroeste 31 Oeste 0 977.8 -- 43
2021-02-22 02:00:00 10.2 15 Oeste 49 Noroeste 0 977.4 -- 46
2021-02-22 01:00:00 10.1 25 Noroeste 50 Noroeste 0 976.6 -- 48
2021-02-22 00:00:00 11.1 25 Oeste 45 Noroeste 0 975.5 -- 47
2021-02-21 23:00:00 11.5 26 Noroeste 49 Noroeste 0 974.7 -- 46
2021-02-21 22:00:00 12 17 Noroeste 37 Noroeste 0 974 2.8 46
2021-02-21 21:00:00 12.1 4 Norte 18 Sudoeste 0 972.8 -- 57
2021-02-21 20:00:00 12.6 11 Sur 23 Sur 0 971.8 -- 52
2021-02-21 19:00:00 13.3 7 Sur 27 Oeste 0 971.2 -- 50
2021-02-21 18:00:00 13.9 16 Sudoeste 46 Sudoeste 0 970.5 -- 45
2021-02-21 17:00:00 15.4 8 Sur 18 Sudoeste 0 970 -- 44
2021-02-21 16:00:00 15.8 8 Sudoeste 17 Sudoeste 0 970 -- 42
2021-02-21 15:00:00 15.8 7 Este 17 Nordeste 0 969.7 -- 44
2021-02-21 14:00:00 15.7 6 Este 17 Nordeste 0 970.6 -- 44
2021-02-21 13:00:00 15 7 Nordeste 24 Nordeste 0 971.2 -- 46
2021-02-21 12:00:00 14.4 8 Este 23 Nordeste 0 971.7 -- 48
2021-02-21 11:00:00 14 0 Calma 17 Norte 0 972.4 -- 49
2021-02-21 10:00:00 13 4 Este 22 Sudeste 0 973 -- 53
2021-02-21 09:00:00 11.5 0 Calma 10 Sudeste 0 972.2 -- 60
2021-02-21 08:00:00 9.9 2 Norte 10 Noroeste 0 972.6 -- 60
2021-02-21 07:00:00 9.8 4 Norte 14 Nordeste 0 973.1 -- 64
2021-02-21 06:00:00 10.3 3 Nordeste 12 Nordeste 0 972.9 -- 61
2021-02-21 05:00:00 8.6 8 Norte 11 Noroeste 0 973.5 -- 79
2021-02-21 04:00:00 9.2 0 Calma 6 Nordeste 0 974.5 -- 83
2021-02-21 03:00:00 9.2 3 Noroeste 9 Oeste 0 975.7 -- 83
2021-02-21 02:00:00 9.7 0 Calma 5 Oeste 0 977.4 -- 82
2021-02-21 01:00:00 9.8 3 Norte 15 Nordeste 0 978.5 -- 81
2021-02-21 00:00:00 10.4 5 Este 26 Este 0 979.2 -- 78
2021-02-20 23:00:00 10.5 9 Nordeste 23 Este 0 979.3 -- 79
2021-02-20 22:00:00 10.7 4 Nordeste 13 Este 0 979.6 -- 82
2021-02-20 21:00:00 11.1 2 Nordeste 8 Norte 0 979.9 -- 82
2021-02-20 20:00:00 11.3 3 Oeste 11 Sur 0 980.1 -- 82
2021-02-20 19:00:00 11.8 6 Sudoeste 15 Sur 0 979.8 -- 81
2021-02-20 18:00:00 12.8 9 Sur 20 Sudoeste 0 979.8 -- 74
2021-02-20 17:00:00 14.2 11 Sudoeste 21 Sur 0 979.6 -- 65
2021-02-20 16:00:00 15.1 12 Sur 21 Sudoeste 0 980.3 -- 56
2021-02-20 15:00:00 15 13 Sur 20 Sudoeste 0 981.2 -- 56
2021-02-20 14:00:00 15.1 12 Sur 19 Sur 0 981.8 -- 53
2021-02-20 13:00:00 16 8 Sudoeste 16 Sur 0 982.7 -- 42
2021-02-20 12:00:00 15.2 3 Sur 9 Sur 0 983.2 -- 38
2021-02-20 11:00:00 13.4 2 Sur 6 Sudoeste 0 984.4 -- 40
2021-02-20 10:00:00 10.9 0 Calma 4 Norte 0 984.2 -- 49
2021-02-20 09:00:00 6.3 0 Calma 4 Nordeste 0 983.7 0.8 61
2021-02-20 08:00:00 5.3 0 Calma 3 Sur 0 983.5 -- 66
2021-02-20 07:00:00 5.1 0 Calma 5 Nordeste 0 983.1 -- 66
2021-02-20 06:00:00 5.1 0 Calma 4 Nordeste 0 982.9 -- 69
2021-02-20 05:00:00 5.1 3 Nordeste 5 Nordeste 0 982.5 -- 71
2021-02-20 04:00:00 5.6 0 Calma 5 Este 0 982.8 -1.5 71
2021-02-20 03:00:00 6.2 0 Calma 4 Este 0 983.5 -- 76
2021-02-20 02:00:00 6.5 3 Este 5 Nordeste 0 983.8 -- 75
2021-02-20 01:00:00 7.4 0 Calma 4 Nordeste 0 984.3 -- 78
2021-02-20 00:00:00 8.3 0 Calma 4 Noroeste 0 984.6 -- 74
2021-02-19 23:00:00 8.6 0 Calma 4 Sur 0 984.7 0.3 78
2021-02-19 22:00:00 10.2 0 Calma -- -- 0 984.3 -- 78
2021-02-19 21:00:00 11.2 0 Calma 3 Sur 0 984.4 -- 77
2021-02-19 20:00:00 12.5 0 Calma 6 Sudoeste 0 984.4 -- 75
2021-02-19 19:00:00 13.7 3 Sudoeste 12 Sudoeste 0 984 -- 68
2021-02-19 18:00:00 15.9 8 Sudoeste 18 Sudoeste 0 984 -- 48
2021-02-19 17:00:00 16.4 14 Sudoeste 21 Sudoeste 0 984 -0.7 49
2021-02-19 16:00:00 17 13 Sudoeste 26 Sudoeste 0 984 -- 50
2021-02-19 15:00:00 17.2 15 Sudoeste 26 Sudoeste 0 984.2 -- 47
2021-02-19 14:00:00 18.3 13 Sudoeste 22 Sudoeste 0 984.7 -- 39
2021-02-19 13:00:00 20.6 4 Sur 12 Oeste 0 985.3 -- 27
2021-02-19 12:00:00 18.4 3 Sur 8 Sur 0 986 -- 25
2021-02-19 11:00:00 17.6 0 Calma 4 Este 0 986 -- 28
2021-02-19 10:00:00 13.4 0 Calma 3 Sudeste 0 986.4 -- 38
2021-02-19 09:00:00 10.1 0 Calma 4 Este 0 986.2 -- 54
2021-02-19 08:00:00 6.4 0 Calma 3 Noroeste 0 985.4 -- 67
2021-02-19 07:00:00 6.3 0 Calma 5 Este 0 985.2 -- 70
2021-02-19 06:00:00 6.3 2 Este 6 Este 0 984.8 -- 69
2021-02-19 05:00:00 7 0 Calma 4 Este 0 984.3 -- 65
2021-02-19 04:00:00 7.2 0 Calma 4 Este 0 984.3 -- 68
2021-02-19 03:00:00 7.9 0 Calma 0 Calma 0 984.5 -- 68
2021-02-19 02:00:00 8.8 0 Calma 6 Noroeste 0 984.6 -- 53
2021-02-19 01:00:00 8.4 2 Noroeste 5 Nordeste 0 984.6 -- 75
2021-02-19 00:00:00 9 2 Este 7 Nordeste 0 984.9 -- 81
2021-02-18 23:00:00 9.9 0 Calma 5 Noroeste 0 984.9 -- 79
2021-02-18 22:00:00 10.6 0 Calma 4 Sur 0 984.7 -- 77
2021-02-18 21:00:00 11.3 0 Calma 5 Noroeste 0 984.5 -- 76
2021-02-18 20:00:00 12 2 Noroeste 6 Oeste 0 984.1 -- 73
2021-02-18 19:00:00 13 3 Sudoeste 9 Sur 0 983.4 -- 69
2021-02-18 18:00:00 14.2 8 Sudoeste 16 Sudoeste 0 983.3 -- 64
2021-02-18 17:00:00 15.1 11 Sudoeste 22 Sudoeste 0 982.6 -- 59
2021-02-18 16:00:00 16.3 10 Sur 24 Sudoeste 0 982.3 -- 51
2021-02-18 15:00:00 16.3 13 Sudoeste 25 Sur 0 982.1 -- 46
2021-02-18 14:00:00 16.1 13 Sudoeste 23 Sudoeste 0 982.7 -- 37
2021-02-18 13:00:00 17.3 7 Sur 19 Sudoeste 0 983.2 -- 25
2021-02-18 12:00:00 17.3 5 Sudoeste 14 Sudoeste 0 983.5 -- 26
2021-02-18 11:00:00 17.9 0 Calma 6 Oeste 0 983.9 -- 26
2021-02-18 10:00:00 12.3 0 Calma 4 Este 0 984.1 -- 38
2021-02-18 09:00:00 8.1 0 Calma 6 Este 0 984.1 -- 53
2021-02-18 08:00:00 4.6 0 Calma 5 Este 0 983.2 -- 66
2021-02-18 07:00:00 4.4 0 Calma 5 Este 0 983.1 -- 66
2021-02-18 06:00:00 4.9 0 Calma 4 Norte 0 983.2 -- 67
2021-02-18 05:00:00 5.2 0 Calma 3 Este 0 983.3 -- 67
2021-02-18 04:00:00 5.7 0 Calma 4 Noroeste 0 983.5 -- 64
2021-02-18 03:00:00 7.1 0 Calma 8 Noroeste 0 984.1 -- 53
2021-02-18 02:00:00 7.1 3 Noroeste 6 Nordeste 0 984.7 -- 58
2021-02-18 01:00:00 7.4 3 Nordeste 7 Nordeste 0 984.8 -- 61
2021-02-18 00:00:00 8.1 0 Calma 4 Noroeste 0 985.5 -- 57
2021-02-17 23:00:00 9.1 0 Calma 4 Este 0 985.6 -- 56
2021-02-17 22:00:00 9.9 3 Este 8 Sudeste 0 985.5 -- 54
2021-02-17 21:00:00 11.5 0 Calma 4 Noroeste 0 985.5 -- 58
2021-02-17 20:00:00 12.7 0 Calma 5 Sudoeste 0 985.6 -- 54
2021-02-17 19:00:00 14.7 3 Sur 12 Sudoeste 0 985.3 -- 47
2021-02-17 18:00:00 17 7 Sudoeste 13 Sudoeste 0 985.5 -- 31
2021-02-17 17:00:00 19.2 7 Sur 23 Sudoeste 0 985.4 -- 26
2021-02-17 16:00:00 18.6 13 Sudoeste 23 Sur 0 985.5 -- 27
2021-02-17 15:00:00 19.3 14 Sur 23 Sur 0 985.7 -- 23
2021-02-17 14:00:00 20.5 9 Sudoeste 18 Sudoeste 0 986.3 -- 17
2021-02-17 13:00:00 20.2 6 Sudoeste 13 Sudoeste 0 987.3 -- 17
2021-02-17 12:00:00 19.5 4 Sur 9 Sur 0 988.3 -- 17
2021-02-17 11:00:00 18.2 0 Calma 3 Sudeste 0 988.3 -- 22
2021-02-17 10:00:00 16.1 0 Calma 0 Calma 0 988.7 -- 28
2021-02-17 09:00:00 8.9 0 Calma 5 Este 0 988.7 -- 49
2021-02-17 08:00:00 4.7 3 Este 5 Este 0 988 -- 67
2021-02-17 07:00:00 5.3 0 Calma -- -- 0 988 -- 69
2021-02-17 06:00:00 4.8 0 Calma 3 Norte 0 988.1 -- 72
2021-02-17 05:00:00 5.3 0 Calma 5 Este 0 988.1 -- 77
2021-02-17 04:00:00 5.6 2 Este 6 Este 0 988.4 -- 78
2021-02-17 03:00:00 6 0 Calma 0 Calma 0 988.8 -- 80
2021-02-17 02:00:00 6.3 0 Calma 4 Este 0 989.3 -- 79
2021-02-17 01:00:00 7.1 0 Calma 2 Sudoeste 0 989.7 -- 81
2021-02-17 00:00:00 7.4 0 Calma -- -- 0 990.2 -- 80
2021-02-16 23:00:00 8 0 Calma 3 Sudeste 0 990.4 -- 78
2021-02-16 22:00:00 9 0 Calma 3 Sudeste 0 990.4 -- 75
2021-02-16 21:00:00 9.7 0 Calma 4 Oeste 0 990.5 -- 74
2021-02-16 20:00:00 10.3 3 Sudoeste 7 Sudoeste 0 990.5 -- 70
2021-02-16 19:00:00 11.4 4 Sudoeste 12 Sudoeste 0 990.6 -- 64
2021-02-16 18:00:00 13 7 Sur 16 Sudoeste 0 990.4 -- 55
2021-02-16 17:00:00 14 9 Sur 22 Sudoeste 0 990.4 -- 51
2021-02-16 16:00:00 14.3 13 Sudoeste 23 Sur 0 990.7 -- 46
2021-02-16 15:00:00 16.4 10 Sudoeste 18 Sudoeste 0 991.2 -- 36
2021-02-16 14:00:00 16.7 7 Sudoeste 19 Oeste 0 992.1 -- 35
2021-02-16 13:00:00 14.9 2 Noroeste 12 Noroeste 0 993.1 -- 36
2021-02-16 12:00:00 13.8 2 Oeste 12 Oeste 0 993.9 -- 42
2021-02-16 11:00:00 11.7 3 Sur 6 Sudoeste 0 994.3 -- 49
2021-02-16 10:00:00 8.9 0 Calma -- -- 0 995.1 -- 59
2021-02-16 09:00:00 4.3 0 Calma -- -- 0 994.4 -- 79
2021-02-16 08:00:00 3.2 0 Calma -- -- 0 993.9 -- 80
2021-02-16 07:00:00 3.6 0 Calma -- -- 0 994.2 -- 77
2021-02-16 06:00:00 3.6 0 Calma 5 Noroeste 0 994.7 -- 78
2021-02-16 05:00:00 3.6 0 Calma 3 Noroeste 0 994.9 -- 82
2021-02-16 04:00:00 4 0 Calma 3 Nordeste 0 995.4 -- 81
2021-02-16 03:00:00 4.5 0 Calma -- -- 0 995.9 -- 81
2021-02-16 02:00:00 5 0 Calma -- -- 0 996.4 -- 81
2021-02-16 01:00:00 5.3 0 Calma 3 Norte 0 997 -- 78
2021-02-16 00:00:00 6.2 0 Calma 5 Noroeste 0 997.3 -- 81
2021-02-15 23:00:00 6.8 0 Calma 3 Noroeste 0 997.6 -- 81
2021-02-15 22:00:00 7.8 0 Calma 2 Nordeste 0 997.9 -- 78
2021-02-15 21:00:00 8.9 0 Calma 3 Este 0 998.1 -- 76
2021-02-15 20:00:00 9.7 0 Calma 5 Sudoeste 0 998 -- 72
2021-02-15 19:00:00 10.9 0 Calma 10 Sur 0 997.9 -- 64
2021-02-15 18:00:00 12.8 5 Sur 15 Este 0 997.5 -- 50
2021-02-15 17:00:00 13.7 8 Sudeste 16 Sudeste 0 997.5 -- 39
2021-02-15 16:00:00 13.8 7 Sudeste 15 Este 0 997.5 -- 37
2021-02-15 15:00:00 13.7 8 Sudeste 15 Este 0 998.2 -- 37
2021-02-15 14:00:00 13.8 8 Sudeste 16 Sudeste 0 998.3 -- 37
2021-02-15 13:00:00 13.3 4 Sudeste 15 Este 0 999 -- 49
2021-02-15 12:00:00 12.3 8 Este 18 Este 0 999.7 -- 54
2021-02-15 11:00:00 11.8 6 Sudeste 13 Este 0 1000.3 -- 60
2021-02-15 10:00:00 12.9 3 Este 8 Sudeste 0 999.2 -- 68
2021-02-15 09:00:00 11.4 0 Calma 4 Nordeste 0 998.6 -- 81
2021-02-15 08:00:00 9.8 0 Calma 8 Este 0 998.2 -- 84
2021-02-15 07:00:00 10 0 Calma 5 Este 0 998.1 -- 84
2021-02-15 06:00:00 10 0 Calma 4 Nordeste 0 997.8 -- 84
2021-02-15 05:00:00 10.1 0 Calma 9 Este 0 998 -- 84
2021-02-15 04:00:00 10.3 2 Este 9 Este 0 998.2 -- 83
2021-02-15 03:00:00 10.2 2 Este 11 Este 0 998.2 -- 82
2021-02-15 02:00:00 10.4 0 Calma 9 Sudeste 0 998.4 -- 80
2021-02-15 01:00:00 10.3 0 Calma 5 Sudeste 0 998.4 -- 80
2021-02-15 00:00:00 10.2 0 Calma 6 Nordeste 0 998.2 -- 78
2021-02-14 23:00:00 10.7 0 Calma 11 Este 0 998.4 -- 75
2021-02-14 22:00:00 11.9 0 Calma 6 Sudeste 0 998.2 -- 72
2021-02-14 21:00:00 12.2 3 Sudeste 12 Sudeste 0 997.7 -- 75
2021-02-14 20:00:00 12.6 0 Calma 10 Sudeste 0 997.3 -- 71
2021-02-14 19:00:00 12.9 6 Sudeste 22 Este 0 996.6 1.7 55
2021-02-14 18:00:00 14.7 6 Sudeste 21 Sudeste 0 995.9 1.5 43
2021-02-14 17:00:00 15.2 10 Sudeste 23 Sudeste 0 995.3 -- 43
2021-02-14 16:00:00 16.2 12 Este 32 Este 0 994.9 -- 39
2021-02-14 15:00:00 16.5 10 Sudeste 25 Sudeste 0 994.4 -- 41
2021-02-14 14:00:00 16.4 9 Sudeste 26 Este 0 994.4 -- 43
2021-02-14 13:00:00 16.5 11 Sudeste 26 Este 0 994.6 -- 43
2021-02-14 12:00:00 16.2 10 Este 29 Nordeste 0 994.5 -- 38
2021-02-14 11:00:00 16 8 Este 24 Este 0 993.8 -- 36
2021-02-14 10:00:00 14.9 5 Este 13 Este 0 993.7 -- 40
2021-02-14 09:00:00 10.1 0 Calma 10 Nordeste 0 993.1 -- 48
2021-02-14 08:00:00 7.8 2 Sudeste 9 Noroeste 0 992.1 -- 54
2021-02-14 07:00:00 8.7 6 Noroeste 8 Noroeste 0 991.4 -- 54
2021-02-14 06:00:00 6.8 5 Este 10 Sudeste 0 991.1 -- 59
2021-02-14 05:00:00 8.1 0 Calma 8 Noroeste 0 990.7 -- 54
2021-02-14 04:00:00 7.9 0 Calma 7 Oeste 0 990.8 -- 59
2021-02-14 03:00:00 7.8 2 Este 6 Este 0 990.8 -- 58
2021-02-14 02:00:00 9.1 0 Calma 5 Sudeste 0 990.8 -- 51
2021-02-14 01:00:00 9.8 0 Calma 5 Nordeste 0 990.8 -- 52
2021-02-14 00:00:00 10.5 3 Noroeste 6 Oeste 0 990.8 -- 47
2021-02-13 23:00:00 11 0 Calma 9 Noroeste 0 990.7 -- 47
2021-02-13 22:00:00 11.6 4 Oeste 6 Noroeste 0 990.4 -- 46
2021-02-13 21:00:00 13.1 4 Nordeste 8 Este 0 990.2 -- 44
2021-02-13 20:00:00 14 3 Este 14 Este 0 989.7 -- 42
2021-02-13 19:00:00 15.7 5 Este 14 Este 0 988.7 -- 36
2021-02-13 18:00:00 18.9 4 Sur 17 Sudoeste 0 988.1 -- 28
2021-02-13 17:00:00 19.3 8 Sudoeste 19 Sudoeste 0 987.8 -- 27
2021-02-13 16:00:00 19.7 9 Sur 23 Sudoeste 0 987.5 -- 26
2021-02-13 15:00:00 19.2 15 Sudoeste 25 Sudoeste 0 987.8 -- 26
2021-02-13 14:00:00 21.7 4 Sudeste 14 Sur 0 988.1 -- 20
2021-02-13 13:00:00 20.2 5 Sur 14 Sur 0 989 -- 22
2021-02-13 08:00:00 8.9 4 Noroeste 8 Nordeste 0 988.8 0.8 57
2021-02-13 07:00:00 10.5 3 Sudeste 10 Sur 0 988.5 0.8 53
2021-02-13 06:00:00 11.1 0 Calma 14 Noroeste 0 988.4 0.3 50
2021-02-13 05:00:00 11.7 6 Oeste 18 Noroeste 0 988 -0.2 48
2021-02-13 04:00:00 12.2 8 Oeste 22 Noroeste 0 987.7 -0.7 46
2021-02-13 03:00:00 12.1 7 Oeste 15 Noroeste 0 988.1 -0.4 46
2021-02-13 02:00:00 12.7 8 Noroeste 21 Norte 0 988.2 -0.1 44
2021-02-13 01:00:00 12.9 3 Noroeste 25 Noroeste 0 988.4 0.7 44
2021-02-13 00:00:00 13.7 10 Noroeste 28 Oeste 0 988.5 1.4 43
2021-02-12 23:00:00 13.9 16 Noroeste 26 Noroeste 0 988.3 1.8 43
2021-02-12 22:00:00 14 14 Noroeste 24 Noroeste 0 987.7 2.5 43
2021-02-12 21:00:00 14.9 17 Noroeste 30 Noroeste 0 987.1 2.6 40
2021-02-12 20:00:00 15.5 14 Noroeste 46 Noroeste 0 986.5 2.5 35
2021-02-12 19:00:00 16.8 23 Noroeste 46 Noroeste 0 985.2 1.3 29
2021-02-12 18:00:00 18.8 18 Oeste 48 Noroeste 0 984.5 1.1 21
2021-02-12 17:00:00 20 24 Oeste 49 Noroeste 0 984 0.3 18
2021-02-12 16:00:00 20.6 20 Noroeste 54 Oeste 0 983.9 -0.1 19
2021-02-12 15:00:00 20.3 29 Noroeste 54 Oeste 0 983.4 -0.8 28
2021-02-12 14:00:00 21.2 29 Noroeste 50 Oeste 0 983.7 -0.2 30
2021-02-12 13:00:00 20.7 24 Noroeste 47 Noroeste 0 984 -0.5 30
2021-02-12 12:00:00 20.2 16 Noroeste 48 Noroeste 0 984.2 0.2 33
2021-02-12 11:00:00 18.6 30 Noroeste 49 Oeste 0 983.9 0.3 37
2021-02-12 10:00:00 17.1 16 Noroeste 33 Oeste 0 984.5 1 41
2021-02-12 09:00:00 15.2 9 Oeste 25 Oeste 0 984 -- 52
2021-02-12 08:00:00 15.6 17 Oeste 34 Oeste 0 983.6 -- 50
2021-02-12 07:00:00 13.9 0 Calma 11 Sudoeste 0 983.5 -- 64
2021-02-12 06:00:00 12 0 Calma 6 Norte 0 983.5 -- 75
2021-02-12 05:00:00 11 0 Calma 5 Sudoeste 0 982.9 -- 80
2021-02-12 04:00:00 10.8 2 Noroeste 6 Noroeste 0 983.4 -- 80
2021-02-12 03:00:00 11.3 0 Calma 4 Este 0 983.7 -- 78
2021-02-12 02:00:00 11.9 0 Calma 3 Este 0 983.9 -- 78
2021-02-12 01:00:00 12.2 0 Calma 3 Noroeste 0 984 -- 78
2021-02-12 00:00:00 12.7 0 Calma 3 Noroeste 0 984.2 -- 75
2021-02-11 23:00:00 13.1 0 Calma 4 Nordeste 0 984.4 -- 73
2021-02-11 22:00:00 13.7 0 Calma 4 Nordeste 0 984.3 -- 71
2021-02-11 21:00:00 14.6 0 Calma 3 Oeste 0 984.2 -- 67
2021-02-11 20:00:00 15.6 0 Calma 5 Noroeste 0 984.1 -- 62
2021-02-11 19:00:00 16.2 4 Sudoeste 10 Sudoeste 0 983.8 -- 56
2021-02-11 18:00:00 17.8 7 Sudoeste 13 Oeste 0 983.1 -- 50
2021-02-11 17:00:00 18.5 6 Sudoeste 23 Sudoeste 0 983 -- 48
2021-02-11 16:00:00 19 15 Sudoeste 24 Sur 0 982.9 -- 46
2021-02-11 15:00:00 20.5 13 Sudoeste 26 Sudoeste 0 983 -- 40
2021-02-11 14:00:00 21.2 12 Sudoeste 23 Sudoeste 0 983.7 -- 39
2021-02-11 13:00:00 20 9 Sudoeste 21 Sur 0 984.5 -- 42
2021-02-11 12:00:00 20 11 Sudoeste 21 Sudoeste 0 984.9 -- 42
2021-02-11 11:00:00 17.9 8 Sudoeste 13 Sudoeste 0 985.1 -- 50
2021-02-11 10:00:00 16.8 3 Sur 9 Sur 0 985.3 -- 54
2021-02-11 09:00:00 12.7 4 Este 8 Este 0 985.2 -- 70
2021-02-11 08:00:00 12.1 0 Calma 6 Sudeste 0 984.6 -- 72
2021-02-11 07:00:00 13 3 Sur 6 Sur 0 984.4 -- 73
2021-02-11 06:00:00 13.7 0 Calma 17 Noroeste 0 984.1 -- 69
2021-02-11 05:00:00 15.3 9 Noroeste 18 Noroeste 0 983.4 -- 62
2021-02-11 04:00:00 15.4 5 Sudoeste 17 Noroeste 0 983.8 -- 63
2021-02-11 03:00:00 15.9 7 Oeste 23 Sudoeste 0 983.7 -- 63
2021-02-11 02:00:00 15.1 6 Sudoeste 17 Noroeste 0 984 -- 67
2021-02-11 01:00:00 15.5 10 Oeste 18 Oeste 0 983.6 -- 63
2021-02-11 00:00:00 15.3 0 Calma 18 Oeste 0 983.3 -- 64
2021-02-10 23:00:00 15.4 12 Oeste 26 Noroeste 0 982.9 -- 63
2021-02-10 22:00:00 15.7 15 Oeste 31 Oeste 0 982.5 -- 60
2021-02-10 21:00:00 15.9 17 Oeste 25 Sudoeste 0 981.9 -- 56
2021-02-10 20:00:00 16.2 5 Sudoeste 31 Noroeste 0 981.1 -- 49
2021-02-10 19:00:00 16.8 19 Noroeste 31 Oeste 0 979.9 -- 47
2021-02-10 18:00:00 18.5 18 Oeste 34 Oeste 0 978.8 -- 40
2021-02-10 17:00:00 18.7 20 Oeste 53 Noroeste 0 977.5 -- 41
2021-02-10 16:00:00 19.2 34 Noroeste 54 Noroeste 0 976.9 -- 40
2021-02-10 15:00:00 19.5 19 Noroeste 46 Noroeste 0 977.2 -- 40
2021-02-10 14:00:00 19.7 23 Noroeste 50 Noroeste 0 975.9 -- 40
2021-02-10 13:00:00 19.3 16 Noroeste 62 Oeste 0 976.3 -- 40
2021-02-10 12:00:00 18.6 30 Noroeste 59 Noroeste 0 976 -- 40
2021-02-10 11:00:00 17.5 3 Norte 37 Noroeste 0 975.7 -- 42
2021-02-10 10:00:00 15.4 4 Sudeste 16 Sur 0 975.4 -- 46
2021-02-10 09:00:00 14 7 Sudoeste 39 Sudoeste 0 975.1 -- 47
2021-02-10 08:00:00 14.8 22 Oeste 39 Oeste 0 974.2 -- 43
2021-02-10 07:00:00 13.7 16 Sudoeste 45 Noroeste 0 974.1 -- 48
2021-02-10 06:00:00 14.4 18 Oeste 34 Sudoeste 0 974.4 -- 46
2021-02-10 05:00:00 14.2 14 Oeste 50 Oeste 0 973.8 -- 46
2021-02-10 04:00:00 14.2 9 Noroeste 43 Noroeste 0 973.9 -- 46
2021-02-10 03:00:00 14.4 17 Oeste 68 Noroeste 0 973.9 -- 42
2021-02-10 02:00:00 12.7 7 Noroeste 24 Noroeste 0 973.9 -- 61
2021-02-10 01:00:00 10.7 6 Norte 9 Este 0 973.6 -- 69
2021-02-10 00:00:00 10.6 3 Este 10 Sur 0 973.4 -- 68
2021-02-09 23:00:00 11.3 0 Calma 7 Este 0 973.5 -- 65
2021-02-09 22:00:00 12.1 3 Este 10 Sudeste 0 973.5 -- 60
2021-02-09 21:00:00 13.2 3 Este 10 Sur 0 973.2 -- 54
2021-02-09 20:00:00 12.6 2 Sudoeste 17 Oeste 0 972.7 -- 53
2021-02-09 19:00:00 14 7 Sudeste 16 Este 0 972.2 -- 47
2021-02-09 18:00:00 15.9 5 Sudoeste 17 Sudoeste 0 971.3 -- 40
2021-02-09 17:00:00 15.3 9 Sudoeste 15 Sudoeste 0 971.5 -- 34
2021-02-09 16:00:00 16 4 Sudoeste 9 Sudoeste 0 972.5 -- 31
2021-02-09 15:00:00 15.8 3 Sudoeste 10 Oeste 0 973.1 -- 32
2021-02-09 14:00:00 15.6 6 Sur 13 Sur 0 973.4 -- 31
2021-02-09 13:00:00 15 6 Sur 15 Sudoeste 0 974.8 -- 34
2021-02-09 12:00:00 14.7 9 Sudoeste 20 Sudoeste 0 975.7 -- 35
2021-02-09 11:00:00 13.8 10 Sudoeste 22 Sudoeste 0 976 -- 40
2021-02-09 10:00:00 12.2 9 Oeste 17 Oeste 0 976.4 -- 42
2021-02-09 09:00:00 11.2 8 Oeste 20 Noroeste 0 976.3 -- 43
2021-02-09 08:00:00 11.3 14 Noroeste 23 Noroeste 0 976.1 -- 42
2021-02-09 07:00:00 11.4 9 Noroeste 33 Norte 0 976.2 -- 42
2021-02-09 06:00:00 12 14 Noroeste 26 Noroeste 0 975.8 -- 40
2021-02-09 05:00:00 11.7 8 Noroeste 28 Norte 0 975.9 -- 40
2021-02-09 04:00:00 12.1 0 Calma 24 Noroeste 0 975.7 -- 41
2021-02-09 03:00:00 12.5 8 Noroeste 25 Norte 0 975.3 -- 40
2021-02-09 02:00:00 13 6 Noroeste 33 Oeste 0 975.9 -- 38
2021-02-09 01:00:00 12.6 10 Oeste 35 Oeste 0 975.3 -- 40
2021-02-09 00:00:00 13.2 12 Oeste 48 Oeste 0 975.1 -- 43
2021-02-08 23:00:00 12.9 16 Oeste 42 Sudoeste 0 975.2 -- 40
2021-02-08 22:00:00 13.5 9 Sur 40 Noroeste 0 974.9 -- 37
2021-02-08 21:00:00 13.6 11 Oeste 59 Oeste 0 974.6 -- 36
2021-02-08 20:00:00 13.7 17 Oeste 62 Noroeste 0 973 -- 36
2021-02-08 19:00:00 13 32 Oeste 66 Noroeste 0 971.8 -- 38
2021-02-08 18:00:00 14.9 36 Noroeste 76 Oeste 0 969.8 -- 30
2021-02-08 17:00:00 16.5 31 Noroeste 68 Noroeste 0 970.7 -- 26
2021-02-08 16:00:00 16.2 30 Noroeste 61 Noroeste 0 970.7 -- 27
2021-02-08 15:00:00 16.1 39 Noroeste 67 Noroeste 0 970.8 -- 27
2021-02-08 14:00:00 15.4 33 Noroeste 72 Noroeste 0 971.4 -- 29
2021-02-08 13:00:00 14.9 43 Noroeste 67 Noroeste 0 971.4 -- 32
2021-02-08 12:00:00 14.5 31 Noroeste 71 Noroeste 0 972.9 -- 37
2021-02-08 11:00:00 15.9 20 Oeste 35 Sudoeste 0 971.1 -- 42
2021-02-08 10:00:00 10.2 3 Noroeste 12 Noroeste 0 971.6 -- 61
2021-02-08 09:00:00 8.7 2 Nordeste 7 Norte 0 970.8 -- 63
2021-02-08 08:00:00 8.2 3 Norte 11 Nordeste 0 970.7 -- 61
2021-02-08 07:00:00 8.6 5 Este 10 Nordeste 0 971 -- 57
2021-02-08 06:00:00 10.1 3 Sudoeste 8 Sur 0 971.7 -- 50
2021-02-08 05:00:00 10.9 5 Sur 31 Oeste 0 972.9 -- 47
2021-02-08 04:00:00 11.4 8 Norte 39 Norte 0 972.9 -- 46
2021-02-08 03:00:00 11.3 20 Noroeste 63 Noroeste 0 974.5 -- 46
2021-02-08 02:00:00 10.6 32 Noroeste 60 Noroeste 0 974.3 -- 45
2021-02-08 01:00:00 10.7 36 Noroeste 59 Oeste 0 974.8 -- 43
2021-02-08 00:00:00 10.9 22 Oeste 44 Noroeste 0 974.9 -- 40
2021-02-07 23:00:00 11.4 16 Noroeste 44 Noroeste 0 975.1 -- 40
2021-02-07 22:00:00 12 19 Noroeste 52 Noroeste 0 974.4 -- 41
2021-02-07 21:00:00 12.3 28 Noroeste 51 Oeste 0 974 -- 42
2021-02-07 20:00:00 12.7 17 Oeste 38 Noroeste 0 974.1 -- 39
2021-02-07 19:00:00 13.1 26 Oeste 47 Noroeste 0 973.3 -- 35
2021-02-07 18:00:00 13.5 27 Noroeste 52 Noroeste 0 973 -- 34
2021-02-07 17:00:00 14.5 26 Noroeste 57 Noroeste 0 972.8 -- 33
2021-02-07 16:00:00 15.5 22 Noroeste 53 Noroeste 0 972.4 -- 32
2021-02-07 15:00:00 15.6 29 Noroeste 57 Noroeste 0 972.1 -- 33
2021-02-07 14:00:00 15.5 28 Noroeste 60 Noroeste 0 971.8 -- 31
2021-02-07 13:00:00 15.6 24 Noroeste 49 Noroeste 0 972.6 -- 32
2021-02-07 12:00:00 15.2 27 Noroeste 44 Noroeste 0 972.8 -- 35
2021-02-07 11:00:00 14.4 19 Noroeste 37 Oeste 0 972.6 -- 37
2021-02-07 10:00:00 13 8 Noroeste 23 Noroeste 0 972.4 -- 41
2021-02-07 09:00:00 11.5 12 Noroeste 30 Oeste 0 971.7 -- 45
2021-02-07 08:00:00 10.2 13 Noroeste 37 Noroeste 0 971.2 -- 49
2021-02-07 07:00:00 10.4 16 Noroeste 34 Noroeste 0 971 -- 49
2021-02-07 06:00:00 9.8 12 Noroeste 26 Noroeste 0 971 -- 52
2021-02-07 05:00:00 9.6 10 Noroeste 18 Noroeste 0 971.1 -- 55
2021-02-07 04:00:00 9.2 7 Noroeste 13 Noroeste 0 970.9 -- 56
2021-02-07 03:00:00 9.2 8 Oeste 18 Oeste 0 971 -- 53
2021-02-07 02:00:00 10.4 9 Noroeste 21 Norte 0 971.1 -- 49
2021-02-07 01:00:00 10.7 4 Norte 26 Oeste 0 971.2 -- 46
2021-02-07 00:00:00 11.6 15 Oeste 30 Oeste 0 970.8 -- 44
2021-02-06 23:00:00 11.9 14 Oeste 28 Noroeste 0 970.7 -- 43
2021-02-06 22:00:00 12.3 11 Noroeste 21 Noroeste 0 970.4 -- 40
2021-02-06 21:00:00 12.6 9 Noroeste 15 Sudoeste 0 969.9 -- 35
2021-02-06 20:00:00 14 8 Noroeste 20 Noroeste 0 969.2 -- 28
2021-02-06 19:00:00 15.3 9 Noroeste 25 Noroeste 0 968.3 -- 24
2021-02-06 18:00:00 16.2 14 Norte 31 Norte 0 967.7 -- 23
2021-02-06 17:00:00 16.9 10 Norte 25 Noroeste 0 967.2 -- 23
2021-02-06 16:00:00 17.3 10 Oeste 25 Oeste 0 966.7 -- 24
2021-02-06 15:00:00 17.2 9 Oeste 27 Noroeste 0 966.9 -- 25
2021-02-06 14:00:00 16.8 9 Noroeste 22 Noroeste 0 967.6 -- 27
2021-02-06 13:00:00 17.5 8 Oeste 21 Sudoeste 0 968.5 -- 28
2021-02-06 12:00:00 17.3 3 Sur 8 Sudoeste 0 968.7 -- 30
2021-02-06 11:00:00 15.2 0 Calma 7 Noroeste 0 968.9 -- 39
2021-02-06 10:00:00 12.9 0 Calma 8 Sudoeste 0 969.3 -- 52
2021-02-06 09:00:00 9.2 0 Calma 8 Sudeste 0 968.8 -- 68
2021-02-06 08:00:00 7 0 Calma 9 Noroeste 0 968.3 -- 71
2021-02-06 07:00:00 7.6 2 Este 9 Nordeste 0 968 -- 78
2021-02-06 06:00:00 7.1 3 Nordeste 9 Norte 0 968 -- 82
2021-02-06 05:00:00 8.7 0 Calma 8 Norte 0 968.1 -- 81
2021-02-06 04:00:00 9.9 3 Norte 13 Norte 0 968.2 -- 77
2021-02-06 03:00:00 10.3 3 Nordeste 17 Norte 0 967.9 -- 78
2021-02-06 02:00:00 10.2 0 Calma 10 Noroeste 0 968.6 -- 81
2021-02-06 01:00:00 11.9 2 Norte 10 Noroeste 0 969.1 -- 74
2021-02-06 00:00:00 12.3 4 Nordeste 8 Noroeste 0 969.3 -- 71
2021-02-05 23:00:00 13.3 4 Norte 16 Sur 0 968.7 -- 64
2021-02-05 22:00:00 13.9 4 Sudeste 13 Sudoeste 0 968.4 -- 59
2021-02-05 21:00:00 13.9 0 Calma 13 Este 0 967.7 -- 59
2021-02-05 20:00:00 14.1 6 Nordeste 22 Este 0 967.4 -- 59
2021-02-05 19:00:00 14.4 4 Este 21 Este 0 967.5 -- 59
2021-02-05 18:00:00 15.7 7 Este 22 Este 0 967.3 -- 52
2021-02-05 17:00:00 17.4 5 Este 20 Nordeste 0 967.4 -- 44
2021-02-05 16:00:00 18.2 6 Este 22 Este 0 968 -- 41
2021-02-05 15:00:00 18.5 7 Este 22 Nordeste 0 968.3 -- 41
2021-02-05 14:00:00 16.5 8 Este 19 Este 0 969.7 -- 46
2021-02-05 13:00:00 16.3 7 Este 23 Sudeste 0 970.7 -- 48
2021-02-05 12:00:00 14.6 8 Este 24 Nordeste 0 971.9 -- 57
2021-02-05 11:00:00 13.4 8 Este 27 Nordeste 0 972.5 -- 62
2021-02-05 10:00:00 12.2 9 Este 22 Este 0 973.2 -- 69
2021-02-05 09:00:00 10 6 Nordeste 14 Nordeste 0 972.7 -- 76
2021-02-05 08:00:00 8.6 4 Norte 9 Norte 0 972.6 -- 81
2021-02-05 07:00:00 8.2 5 Nordeste 19 Nordeste 0 972.5 -- 81
2021-02-05 06:00:00 8.9 6 Nordeste 21 Nordeste 0 972.5 -- 83
2021-02-05 05:00:00 9 11 Nordeste 23 Este 0 972.9 -- 83
2021-02-05 04:00:00 10.4 7 Nordeste 14 Nordeste 0 973.6 -- 77
2021-02-05 03:00:00 8.9 3 Noroeste 8 Noroeste 0 973.7 -- 83
2021-02-05 02:00:00 9.7 2 Noroeste 8 Noroeste 0 973.9 -- 83
2021-02-05 01:00:00 10.2 0 Calma 10 Nordeste 0 974.4 -- 83
2021-02-05 00:00:00 10.6 7 Nordeste 13 Nordeste 0 974.6 -- 82
2021-02-04 23:00:00 10.8 0 Calma 8 Nordeste 0 974.5 -- 76
2021-02-04 22:00:00 11.7 0 Calma 18 Nordeste 0 974.2 -- 69
2021-02-04 21:00:00 12.1 0 Calma 8 Noroeste 0 974.4 -- 70
2021-02-04 20:00:00 12.3 2 Norte 6 Norte 0 974.8 -- 75
2021-02-04 19:00:00 13 2 Noroeste 7 Sudoeste 0 975 -- 77
2021-02-04 18:00:00 13.9 3 Sudoeste 13 Sudoeste 0 975 -- 72
2021-02-04 17:00:00 15.4 5 Sudoeste 12 Sudoeste 0 975.1 -- 64
2021-02-04 16:00:00 15.3 7 Sudoeste 14 Sudoeste 0 975.2 -- 65
2021-02-04 15:00:00 14 8 Sudoeste 16 Sudoeste 0 975.4 -- 71
2021-02-04 14:00:00 16.8 10 Sudoeste 18 Sudoeste 0 975.9 -- 51
2021-02-04 13:00:00 18.2 9 Sudoeste 17 Sudoeste 0 976.9 -- 36
2021-02-04 12:00:00 17.4 5 Sur 12 Sudoeste 0 977.5 -- 37
2021-02-04 11:00:00 17.9 0 Calma 4 Sudeste 0 977.1 -- 38
2021-02-04 10:00:00 14.1 0 Calma 8 Sudoeste 0 977.8 -- 51
2021-02-04 09:00:00 9.8 0 Calma 6 Nordeste 0 978.3 -- 69
2021-02-04 08:00:00 8.2 0 Calma 3 Noroeste 0 977.8 -- 70
2021-02-04 07:00:00 8.2 0 Calma 3 Este 0 977.4 -- 75
2021-02-04 06:00:00 8.1 0 Calma 4 Nordeste 0 977 -- 75
2021-02-04 05:00:00 8.6 0 Calma 4 Este 0 977 -- 73
2021-02-04 04:00:00 9.4 0 Calma 3 Este 0 977.6 -- 70
2021-02-04 03:00:00 9.8 0 Calma 4 Este 0 978 -- 71
2021-02-04 02:00:00 10 2 Este 4 Nordeste 0 978.2 -- 69
2021-02-04 01:00:00 10.4 0 Calma 5 Este 0 978.4 -- 69
2021-02-04 00:00:00 11.3 0 Calma 7 Oeste 0 978.5 -- 66
2021-02-03 23:00:00 12 0 Calma 4 Sudoeste 0 978.2 -- 65
2021-02-03 22:00:00 12.3 0 Calma 4 Nordeste 0 978.8 -- 64
2021-02-03 21:00:00 13.2 0 Calma 6 Sudoeste 0 979.2 -- 59
2021-02-03 20:00:00 13.4 3 Oeste 5 Oeste 0 979.1 -- 57
2021-02-03 19:00:00 14.8 0 Calma 9 Sudoeste 0 978.6 -- 53
2021-02-03 18:00:00 15.8 5 Sudoeste 10 Sudoeste 0 978.5 -- 49
2021-02-03 17:00:00 16.6 3 Sur 10 Sudoeste 0 978.2 -- 46
2021-02-03 16:00:00 16.7 8 Sudoeste 15 Sudoeste 0 978.3 -- 42
2021-02-03 15:00:00 18.1 10 Sudoeste 19 Sur 0 978.4 -- 37
2021-02-03 14:00:00 22.4 3 Sur 10 Sudoeste 0 978.7 -- 20
2021-02-03 13:00:00 20.7 0 Calma 8 Oeste 0 979.8 -- 21
2021-02-03 12:00:00 19.7 0 Calma 4 Este 0 980 -- 27
2021-02-03 11:00:00 14.5 0 Calma 5 Este 0 981.2 -- 42
2021-02-03 10:00:00 10.7 0 Calma -- -- 0 980.8 -- 50
2021-02-03 09:00:00 7.5 0 Calma 5 Este 0 980.1 -- 62
2021-02-03 08:00:00 7 2 Este 5 Este 0 979.6 -- 65
2021-02-03 07:00:00 7.1 0 Calma 8 Oeste 0 979.4 -- 68
2021-02-03 06:00:00 7.9 0 Calma 8 Nordeste 0 979.3 -- 62
2021-02-03 05:00:00 8 0 Calma 5 Este 0 979.6 -- 69
2021-02-03 04:00:00 8.4 0 Calma 4 Nordeste 0 980.1 -- 69
2021-02-03 03:00:00 9.4 0 Calma 3 Nordeste 0 980.5 -- 72
2021-02-03 02:00:00 9.6 0 Calma 4 Sudeste 0 980.4 -- 72
2021-02-03 01:00:00 9.5 0 Calma 4 Sudeste 0 980.7 -- 73
2021-02-03 00:00:00 10 0 Calma 8 Oeste 0 980.9 -- 69
2021-02-02 23:00:00 10.3 0 Calma 7 Nordeste 0 980.9 -- 68
2021-02-02 22:00:00 11.2 0 Calma 6 Este 0 981 -- 66
2021-02-02 21:00:00 12.7 0 Calma 4 Noroeste 0 981.1 -- 56
2021-02-02 20:00:00 14 2 Noroeste 8 Noroeste 0 981 -- 51
2021-02-02 19:00:00 15.2 4 Oeste 14 Sudoeste 0 980.8 -- 47
2021-02-02 18:00:00 17.4 9 Sudoeste 18 Sudoeste 0 980.3 -- 40
2021-02-02 17:00:00 19.5 10 Sudoeste 22 Sudoeste 0 980.2 -- 34
2021-02-02 16:00:00 20.3 13 Sudoeste 23 Sudoeste 0 980.6 -- 31
2021-02-02 15:00:00 20.3 12 Sudoeste 26 Sudoeste 0 980.7 -- 33
2021-02-02 14:00:00 20.3 13 Sudoeste 27 Sudoeste 0 981.5 -- 31
2021-02-02 13:00:00 21.5 17 Sudoeste 25 Sudoeste 0 982.8 -- 30
2021-02-02 12:00:00 21.4 3 Sudeste 6 Sudeste 0 983.1 -- 33
2021-02-02 11:00:00 19 2 Sudeste 9 Este 0 983.5 -- 39
2021-02-02 10:00:00 15.1 3 Sudeste 7 Noroeste 0 983.6 -- 48
2021-02-02 09:00:00 9.6 5 Noroeste 8 Este 0 983.6 -- 65
2021-02-02 08:00:00 10.5 0 Calma 9 Oeste 0 983.3 -- 59
2021-02-02 07:00:00 11.9 5 Oeste 18 Oeste 0 982.9 -- 56
2021-02-02 06:00:00 11.8 9 Sudoeste 20 Oeste 0 982.9 -- 58
2021-02-02 05:00:00 13.5 14 Oeste 42 Noroeste 0 982.9 -- 55
2021-02-02 04:00:00 13.5 28 Noroeste 44 Noroeste 0 982.3 -- 53
2021-02-02 03:00:00 13.7 20 Noroeste 34 Noroeste 0 983 -- 53
2021-02-02 02:00:00 14.2 14 Oeste 36 Oeste 0 983.3 -- 48
2021-02-02 01:00:00 14.5 12 Oeste 48 Noroeste 0 983.2 -- 49
2021-02-02 00:00:00 14.9 30 Noroeste 53 Noroeste 0 982.6 -- 46
2021-02-01 23:00:00 15.4 33 Noroeste 64 Oeste 0 982.9 -- 44
2021-02-01 22:00:00 15.8 29 Noroeste 57 Noroeste 0 983.2 -- 43
2021-02-01 21:00:00 15.7 18 Oeste 40 Norte 0 982.6 -- 43
2021-02-01 20:00:00 17 24 Noroeste 51 Noroeste 0 981.9 -- 36
2021-02-01 19:00:00 18 22 Noroeste 45 Oeste 0 981.4 -- 33
2021-02-01 18:00:00 19.6 21 Oeste 61 Noroeste 0 980.7 -- 29
2021-02-01 17:00:00 20.3 36 Oeste 61 Oeste 0 980 -- 28
2021-02-01 16:00:00 21.3 28 Oeste 55 Oeste 0 979.7 -- 28
2021-02-01 15:00:00 21.3 32 Noroeste 54 Noroeste 0 979.4 -- 28
2021-02-01 14:00:00 21 27 Oeste 76 Noroeste 0 979.9 -- 28
2021-02-01 13:00:00 20.5 32 Noroeste 59 Oeste 0 979.7 -- 30
2021-02-01 12:00:00 19 34 Oeste 53 Noroeste 0 980.4 -- 36
2021-02-01 11:00:00 17.8 25 Oeste 41 Oeste 0 980.5 -- 38
2021-02-01 10:00:00 17.1 28 Noroeste 61 Noroeste 0 980 -- 40
2021-02-01 09:00:00 15.8 36 Noroeste 62 Noroeste 0 979.1 -- 43
2021-02-01 08:00:00 15.6 30 Noroeste 60 Oeste 0 978.2 -- 43
2021-02-01 07:00:00 15.9 26 Noroeste 60 Noroeste 0 978.1 -- 44
2021-02-01 06:00:00 15.9 32 Noroeste 72 Noroeste 0 978.1 -- 45
2021-02-01 05:00:00 15.8 41 Noroeste 75 Noroeste 0 978.5 -- 45
2021-02-01 04:00:00 16.1 28 Noroeste 64 Noroeste 0 978.8 -- 48
2021-02-01 03:00:00 16.3 31 Noroeste 81 Oeste 0 977.8 -- 49
2021-02-01 02:00:00 16.3 36 Noroeste 95 Oeste 0 976.8 -- 50
2021-02-01 01:00:00 16.7 31 Noroeste 70 Noroeste 0 976.8 -- 51
2021-02-01 00:00:00 16.6 30 Noroeste 60 Noroeste 0 978.1 -- 50
2021-01-31 23:00:00 16.9 31 Noroeste 56 Noroeste 0 978.1 -- 49
2021-01-31 22:00:00 16.5 21 Oeste 48 Oeste 0 978.2 -- 49
2021-01-31 21:00:00 16.9 15 Oeste 54 Noroeste 0 978.6 -- 47
2021-01-31 20:00:00 17 23 Oeste 53 Oeste 0 978.6 -- 46
2021-01-31 19:00:00 17.3 31 Oeste 56 Noroeste 0 978.2 -- 44
2021-01-31 18:00:00 17.9 30 Oeste 55 Sudoeste 0 977.9 -- 43
2021-01-31 17:00:00 17.6 27 Oeste 55 Oeste 0 978.4 -- 43
2021-01-31 16:00:00 17.7 22 Oeste 46 Oeste 0 978.4 -- 43
2021-01-31 15:00:00 17 27 Oeste 55 Noroeste 0 979 -- 42
2021-01-31 14:00:00 16.7 32 Noroeste 60 Noroeste 0 978.8 -- 41
2021-01-31 13:00:00 16.4 28 Oeste 52 Noroeste 0 979.8 -- 40
2021-01-31 12:00:00 16.2 32 Noroeste 62 Noroeste 0 979.9 -- 39
2021-01-31 11:00:00 14.8 38 Noroeste 60 Noroeste 0 979.6 -- 40
2021-01-31 10:00:00 12.8 36 Noroeste 60 Noroeste 0 979.7 -- 42
2021-01-31 09:00:00 11.6 35 Noroeste 60 Oeste 0 979.2 -- 43
2021-01-31 08:00:00 11.3 31 Noroeste 55 Oeste 0 979.1 -- 42
2021-01-31 07:00:00 11.5 33 Noroeste 58 Noroeste 0 978.5 -- 42
2021-01-31 06:00:00 11.8 22 Noroeste 46 Noroeste 0 978.2 -- 41
2021-01-31 05:00:00 11.6 10 Oeste 40 Oeste 0 978.7 -- 41
2021-01-31 04:00:00 12 17 Noroeste 48 Oeste 0 978.8 -- 40
2021-01-31 03:00:00 12.1 24 Noroeste 46 Noroeste 0 978.4 -- 39
2021-01-31 02:00:00 12.4 22 Noroeste 49 Noroeste 0 978.1 -- 37
2021-01-31 01:00:00 12.9 30 Oeste 45 Oeste 0 978.4 -- 37
2021-01-31 00:00:00 13.3 18 Oeste 52 Noroeste 0 978.4 -- 35